Time;durP1;ratioP1;P1;durP2;ratioP2;P2;SDS_P1;SDS_P2;PMS_P1;PMS_P2;Temp;Humidity;BMP_temperature;BMP_pressure;BME280_temperature;BME280_humidity;BME280_pressure;Samples;Min_cycle;Max_cycle;Signal;HPM_P1;HPM_P2
2022/12/07 00:00:05;;;;;;;11.20;6.40;;;;;;;5.11;80.10;99663.13;346741;28;2098;-71
2022/12/07 00:00:17;;;;;;;10.65;6.93;;;;;;;5.02;80.60;99669.22;346967;28;1118;-71
2022/12/07 00:00:29;;;;;;;10.80;7.32;;;;;;;5.02;80.11;99661.50;346230;28;1391;-72
2022/12/07 00:00:41;;;;;;;10.93;7.05;;;;;;;4.88;81.02;99661.63;346273;28;1764;-72
2022/12/07 00:00:54;;;;;;;11.82;6.97;;;;;;;4.91;80.86;99665.88;346339;28;1504;-72
2022/12/07 00:01:12;;;;;;;10.73;6.60;;;;;;;4.98;81.03;99663.25;345844;28;1099;-72
2022/12/07 00:01:30;;;;;;;9.10;6.43;;;;;;;5.08;81.28;99664.00;346617;28;2280;-72
2022/12/07 00:01:44;;;;;;;10.25;7.28;;;;;;;5.14;80.79;99661.38;346713;28;1720;-72
2022/12/07 00:01:56;;;;;;;10.35;7.07;;;;;;;5.16;80.53;99662.22;346330;28;1504;-72
2022/12/07 00:02:09;;;;;;;10.75;6.82;;;;;;;5.18;80.49;99665.63;346385;28;1078;-72
2022/12/07 00:02:22;;;;;;;10.88;6.90;;;;;;;5.16;80.10;99662.22;345837;28;1585;-72
2022/12/07 00:02:34;;;;;;;10.52;7.00;;;;;;;5.05;80.38;99664.06;346675;28;1701;-72
2022/12/07 00:02:47;;;;;;;10.60;7.00;;;;;;;5.03;80.91;99663.22;346145;28;1828;-72
2022/12/07 00:02:59;;;;;;;11.60;7.28;;;;;;;5.06;80.67;99660.59;347203;28;1617;-72
2022/12/07 00:03:11;;;;;;;11.77;7.65;;;;;;;4.99;80.29;99659.81;346790;28;1071;-72
2022/12/07 00:03:23;;;;;;;11.13;7.55;;;;;;;5.02;80.22;99661.50;346995;28;1164;-72
2022/12/07 00:03:37;;;;;;;10.57;7.35;;;;;;;5.08;80.83;99664.00;346909;28;1342;-71
2022/12/07 00:03:51;;;;;;;10.00;6.93;;;;;;;5.12;80.74;99668.25;345714;28;1837;-72
2022/12/07 00:04:06;;;;;;;9.55;6.50;;;;;;;5.12;80.50;99665.69;345825;28;1739;-72
2022/12/07 00:04:18;;;;;;;10.02;6.43;;;;;;;5.14;80.51;99658.78;345223;28;1670;-72
2022/12/07 00:04:30;;;;;;;10.45;6.70;;;;;;;5.17;80.27;99658.78;346093;28;1066;-72
2022/12/07 00:04:42;;;;;;;10.85;7.05;;;;;;;5.22;80.08;99663.03;346390;28;736;-72
2022/12/07 00:04:54;;;;;;;10.98;7.43;;;;;;;5.05;80.02;99664.06;345504;28;2113;-72
2022/12/07 00:05:07;;;;;;;10.80;7.18;;;;;;;5.06;79.44;99665.75;346543;28;1779;-72
2022/12/07 00:05:19;;;;;;;9.23;6.43;;;;;;;5.06;79.55;99665.75;347241;28;1329;-72
2022/12/07 00:05:31;;;;;;;10.00;6.60;;;;;;;5.08;80.23;99658.84;347437;28;1058;-72
2022/12/07 00:05:43;;;;;;;10.13;6.50;;;;;;;5.11;80.30;99664.00;347677;28;1325;-72
2022/12/07 00:05:58;;;;;;;9.65;6.25;;;;;;;5.15;80.34;99659.63;347418;28;1077;-72
2022/12/07 00:06:12;;;;;;;9.85;6.25;;;;;;;5.13;80.00;99654.53;346589;28;1643;-72
2022/12/07 00:06:24;;;;;;;9.87;6.17;;;;;;;5.13;79.58;99666.53;347775;28;1223;-72
2022/12/07 00:06:40;;;;;;;10.18;6.60;;;;;;;5.14;79.53;99660.53;347805;28;1114;-72
2022/12/07 00:06:52;;;;;;;10.23;6.80;;;;;;;5.17;80.14;99663.06;346928;28;1845;-72
2022/12/07 00:07:04;;;;;;;11.18;6.60;;;;;;;5.10;79.64;99654.53;345793;28;2066;-72
2022/12/07 00:07:16;;;;;;;12.75;6.50;;;;;;;5.04;80.64;99657.19;347725;28;1061;-71
2022/12/07 00:07:28;;;;;;;12.27;6.38;;;;;;;5.05;80.57;99658.03;345917;28;1273;-72
2022/12/07 00:07:41;;;;;;;9.80;6.45;;;;;;;5.08;80.58;99664.00;346007;28;1062;-72
2022/12/07 00:07:53;;;;;;;9.93;6.60;;;;;;;5.08;80.38;99664.00;345191;28;1614;-72
2022/12/07 00:08:05;;;;;;;9.43;6.60;;;;;;;5.09;80.41;99654.53;346231;28;1258;-71
2022/12/07 00:08:17;;;;;;;9.95;6.57;;;;;;;5.13;80.79;99656.22;345466;28;1721;-72
2022/12/07 00:08:31;;;;;;;10.75;6.55;;;;;;;5.14;80.55;99663.94;344553;28;1420;-72
2022/12/07 00:08:43;;;;;;;10.00;6.40;;;;;;;5.15;80.41;99660.50;344538;28;1048;-71
2022/12/07 00:08:55;;;;;;;9.95;6.35;;;;;;;5.08;80.28;99661.44;343887;28;1026;-72
2022/12/07 00:09:12;;;;;;;9.20;6.07;;;;;;;5.12;80.74;99660.53;344655;28;1172;-72
2022/12/07 00:09:24;;;;;;;10.23;6.45;;;;;;;5.13;80.49;99656.22;344380;28;1779;-71
2022/12/07 00:09:36;;;;;;;10.85;6.63;;;;;;;5.19;80.95;99658.72;345532;28;1764;-72
2022/12/07 00:09:48;;;;;;;10.60;6.50;;;;;;;5.20;80.75;99651.00;344927;28;2041;-71
2022/12/07 00:10:00;;;;;;;10.75;6.55;;;;;;;5.23;80.39;99657.00;346506;28;1245;-71
2022/12/07 00:10:13;;;;;;;11.82;6.90;;;;;;;5.22;80.42;99660.44;345937;28;1477;-72
2022/12/07 00:10:25;;;;;;;12.25;7.25;;;;;;;5.18;81.03;99660.47;345157;28;1339;-72
2022/12/07 00:10:37;;;;;;;10.70;6.78;;;;;;;5.19;80.76;99657.03;345926;28;1092;-71
2022/12/07 00:10:49;;;;;;;10.68;6.57;;;;;;;5.13;80.94;99653.66;345590;28;1674;-71
2022/12/07 00:11:03;;;;;;;10.70;6.57;;;;;;;5.11;80.31;99653.69;345404;28;1806;-72
2022/12/07 00:11:18;;;;;;;10.13;6.63;;;;;;;5.13;80.79;99651.94;345984;28;974;-72
2022/12/07 00:11:30;;;;;;;10.23;6.90;;;;;;;5.12;80.74;99655.38;344355;28;1648;-72
2022/12/07 00:11:43;;;;;;;10.45;7.00;;;;;;;5.12;80.78;99655.38;344717;28;1320;-72
2022/12/07 00:11:55;;;;;;;9.88;6.75;;;;;;;5.11;80.75;99648.53;344843;28;1087;-71
2022/12/07 00:12:08;;;;;;;9.35;6.63;;;;;;;5.11;81.36;99653.69;344691;28;1075;-72
2022/12/07 00:12:20;;;;;;;9.48;6.80;;;;;;;5.11;80.71;99653.69;344687;28;1012;-72
2022/12/07 00:12:32;;;;;;;9.73;6.85;;;;;;;5.13;81.33;99657.09;344250;28;1552;-71
2022/12/07 00:12:44;;;;;;;10.90;6.90;;;;;;;5.09;81.66;99649.41;345001;28;1018;-72
2022/12/07 00:12:56;;;;;;;10.52;6.80;;;;;;;4.97;81.92;99655.53;345850;28;1857;-72
2022/12/07 00:13:08;;;;;;;10.57;6.60;;;;;;;4.90;82.62;99649.59;344558;28;1249;-71
2022/12/07 00:13:20;;;;;;;11.63;6.65;;;;;;;4.79;82.65;99652.28;345146;28;1278;-72
2022/12/07 00:13:34;;;;;;;12.50;7.00;;;;;;;4.88;82.78;99651.31;345795;28;2273;-72
2022/12/07 00:13:47;;;;;;;12.77;7.13;;;;;;;4.96;82.75;99649.53;345988;28;1620;-71
2022/12/07 00:14:02;;;;;;;11.80;6.93;;;;;;;5.02;82.20;99656.34;344873;28;1099;-71
2022/12/07 00:14:16;;;;;;;10.50;6.60;;;;;;;5.06;82.43;99658.03;343513;28;1028;-72
2022/12/07 00:14:28;;;;;;;11.98;7.22;;;;;;;5.05;81.99;99653.75;344501;28;1172;-72
2022/12/07 00:14:40;;;;;;;12.75;7.72;;;;;;;5.08;81.76;99658.84;344537;28;1744;-72
2022/12/07 00:14:52;;;;;;;12.77;7.85;;;;;;;5.01;82.13;99657.22;344667;28;1195;-72
2022/12/07 00:15:04;;;;;;;12.43;7.40;;;;;;;5.00;81.83;99655.50;343685;28;1975;-72
2022/12/07 00:15:16;;;;;;;12.20;7.30;;;;;;;4.93;82.14;99653.84;345515;28;1457;-72
2022/12/07 00:15:28;;;;;;;13.68;7.63;;;;;;;4.90;81.53;99651.31;345531;28;2124;-72
2022/12/07 00:15:41;;;;;;;14.00;7.63;;;;;;;4.90;82.04;99653.88;345966;28;1627;-71
2022/12/07 00:15:53;;;;;;;12.43;7.50;;;;;;;4.89;82.49;99658.19;344980;28;1778;-72
2022/12/07 00:16:17;;;;;;;13.10;7.38;;;;;;;4.87;82.27;99653.91;343930;28;748;-72
2022/12/07 00:16:31;;;;;;;12.45;7.50;;;;;;;4.83;82.95;99657.38;345075;28;1068;-71
2022/12/07 00:16:44;;;;;;;12.38;7.45;;;;;;;4.79;82.65;99659.16;343545;28;1031;-71
2022/12/07 00:16:56;;;;;;;12.80;7.50;;;;;;;4.82;82.81;99650.53;344213;28;1666;-72
2022/12/07 00:17:09;;;;;;;11.70;7.43;;;;;;;4.86;82.72;99652.22;344781;28;1621;-72
2022/12/07 00:17:21;;;;;;;10.98;7.28;;;;;;;4.89;82.84;99647.91;346642;28;1285;-72
2022/12/07 00:17:33;;;;;;;11.00;7.25;;;;;;;4.80;82.47;99647.97;347484;28;1241;-72
2022/12/07 00:17:45;;;;;;;11.20;7.53;;;;;;;4.88;82.51;99643.59;346820;28;1627;-72
2022/12/07 00:17:57;;;;;;;11.45;7.30;;;;;;;4.88;82.36;99647.91;346871;28;1768;-71
2022/12/07 00:18:09;;;;;;;11.00;7.22;;;;;;;4.93;82.55;99648.69;345390;28;1675;-72
2022/12/07 00:18:21;;;;;;;10.85;7.25;;;;;;;4.94;82.54;99653.00;347049;28;1279;-72
2022/12/07 00:18:34;;;;;;;11.20;7.45;;;;;;;4.99;82.49;99653.81;346318;28;1672;-72
2022/12/07 00:18:46;;;;;;;12.50;7.82;;;;;;;5.02;82.55;99648.63;346298;28;1149;-72
2022/12/07 00:18:58;;;;;;;13.23;8.07;;;;;;;5.05;82.46;99642.56;346450;28;1906;-72
2022/12/07 00:19:13;;;;;;;11.90;7.65;;;;;;;5.04;82.17;99646.03;346074;28;2087;-72
2022/12/07 00:19:25;;;;;;;11.77;7.65;;;;;;;5.01;82.63;99652.06;346269;28;1490;-72
2022/12/07 00:19:37;;;;;;;11.88;7.68;;;;;;;5.04;82.63;99644.31;346116;28;1117;-72
2022/12/07 00:19:49;;;;;;;11.43;7.57;;;;;;;4.88;82.13;99647.91;345889;28;1367;-72
2022/12/07 00:20:01;;;;;;;10.95;7.47;;;;;;;4.93;81.98;99644.41;346054;28;1204;-72
2022/12/07 00:20:14;;;;;;;10.57;7.38;;;;;;;4.96;82.31;99643.53;345232;28;1804;-72
2022/12/07 00:20:26;;;;;;;11.57;7.60;;;;;;;4.99;81.77;99643.50;345976;28;1593;-71
2022/12/07 00:20:38;;;;;;;12.35;7.72;;;;;;;4.97;82.00;99645.22;346623;28;760;-71
2022/12/07 00:20:51;;;;;;;11.32;7.38;;;;;;;5.00;82.24;99646.03;344495;28;1836;-72
2022/12/07 00:21:29;;;;;;;12.02;7.63;;;;;;;5.06;81.93;99649.44;345612;28;1072;-72
2022/12/07 00:21:42;;;;;;;11.27;7.57;;;;;;;5.00;82.08;99646.03;346054;28;1570;-72
2022/12/07 00:21:54;;;;;;;12.23;8.15;;;;;;;4.97;82.73;99645.22;346171;28;1067;-71
2022/12/07 00:22:06;;;;;;;12.52;7.97;;;;;;;4.93;82.56;99639.28;345292;28;770;-71
2022/12/07 00:22:18;;;;;;;11.65;7.50;;;;;;;4.94;82.58;99645.25;344527;28;1804;-71
2022/12/07 00:22:30;;;;;;;12.02;7.50;;;;;;;4.94;82.34;99643.53;345904;28;1772;-71
2022/12/07 00:22:42;;;;;;;11.98;7.43;;;;;;;4.96;82.43;99646.09;346273;28;1039;-71
2022/12/07 00:22:54;;;;;;;10.95;7.22;;;;;;;4.97;82.38;99646.09;346985;28;1211;-71
2022/12/07 00:23:06;;;;;;;10.52;7.20;;;;;;;5.00;81.93;99647.78;346819;28;1210;-71
2022/12/07 00:23:18;;;;;;;10.40;7.35;;;;;;;4.98;82.45;99641.78;346329;28;1310;-72
2022/12/07 00:23:30;;;;;;;11.10;7.60;;;;;;;5.00;82.32;99651.19;345004;28;1652;-71
2022/12/07 00:23:44;;;;;;;10.85;7.13;;;;;;;5.03;81.92;99647.75;346030;28;1647;-71
2022/12/07 00:23:56;;;;;;;10.50;7.03;;;;;;;5.02;82.78;99647.78;345930;28;1592;-72
2022/12/07 00:24:09;;;;;;;10.30;7.18;;;;;;;5.03;82.14;99649.47;346654;28;1062;-72
2022/12/07 00:24:21;;;;;;;11.00;7.53;;;;;;;4.99;82.84;99646.09;347441;28;1218;-71
2022/12/07 00:24:34;;;;;;;10.75;7.32;;;;;;;5.01;82.54;99646.91;346946;28;1756;-71
2022/12/07 00:24:46;;;;;;;11.30;7.15;;;;;;;4.95;81.95;99652.09;345744;28;1787;-71
2022/12/07 00:24:57;;;;;;;11.10;6.80;;;;;;;4.96;82.76;99648.69;347057;28;1725;-71
2022/12/07 00:25:10;;;;;;;11.95;6.70;;;;;;;4.73;82.98;99649.75;346411;28;2038;-72
2022/12/07 00:25:22;;;;;;;11.90;7.07;;;;;;;4.77;83.22;99643.72;347131;28;1245;-72
2022/12/07 00:25:34;;;;;;;11.43;7.43;;;;;;;4.67;83.91;99647.22;346200;28;1282;-71
2022/12/07 00:25:49;;;;;;;11.90;7.95;;;;;;;4.63;83.65;99650.69;345105;28;1997;-72
2022/12/07 00:26:06;;;;;;;12.18;8.10;;;;;;;4.66;84.73;99645.50;345169;28;1870;-72
2022/12/07 00:26:19;;;;;;;10.45;7.25;;;;;;;4.73;84.65;99651.47;347083;28;1202;-72
2022/12/07 00:26:34;;;;;;;9.82;7.15;;;;;;;4.73;84.26;99647.19;347394;28;1099;-72
2022/12/07 00:26:46;;;;;;;10.65;7.13;;;;;;;4.83;84.23;99649.66;346867;28;1985;-73
2022/12/07 00:26:59;;;;;;;13.05;7.18;;;;;;;4.79;83.75;99647.13;346669;28;1975;-72
2022/12/07 00:27:11;;;;;;;11.98;6.70;;;;;;;4.79;83.90;99652.28;345731;28;1725;-72
2022/12/07 00:27:22;;;;;;;11.20;6.75;;;;;;;4.80;84.00;99643.66;346915;28;1072;-72
2022/12/07 00:27:35;;;;;;;10.43;6.72;;;;;;;4.83;83.73;99653.09;347688;28;1235;-72
2022/12/07 00:27:47;;;;;;;11.10;7.07;;;;;;;4.89;83.76;99647.00;346662;28;1801;-71
2022/12/07 00:27:59;;;;;;;11.07;7.43;;;;;;;4.85;83.64;99653.06;347547;28;1129;-71
2022/12/07 00:28:11;;;;;;;10.48;7.30;;;;;;;4.89;83.34;99652.16;346338;28;1721;-71
2022/12/07 00:28:23;;;;;;;10.75;7.20;;;;;;;4.87;83.68;99649.63;347392;28;1214;-71
2022/12/07 00:28:37;;;;;;;11.73;7.45;;;;;;;4.82;83.27;99646.22;345394;28;1954;-71
2022/12/07 00:28:51;;;;;;;12.70;7.53;;;;;;;4.89;82.92;99650.47;345084;28;1749;-72
2022/12/07 00:29:16;;;;;;;12.13;6.93;;;;;;;4.88;83.56;99650.47;344609;28;1669;-71
2022/12/07 00:29:28;;;;;;;12.68;6.82;;;;;;;4.88;83.46;99651.31;344297;28;2213;-72
2022/12/07 00:29:40;;;;;;;12.48;7.13;;;;;;;4.89;83.51;99649.59;345014;28;1740;-71
2022/12/07 00:29:52;;;;;;;12.80;7.10;;;;;;;4.88;82.82;99650.47;344653;28;1728;-71
2022/12/07 00:30:04;;;;;;;11.45;7.10;;;;;;;4.89;83.21;99647.91;346042;28;1568;-71
2022/12/07 00:30:17;;;;;;;11.65;7.35;;;;;;;4.89;83.29;99652.16;346974;28;1253;-72
2022/12/07 00:30:28;;;;;;;11.27;7.28;;;;;;;4.88;83.60;99653.06;346098;28;2039;-71
2022/12/07 00:30:40;;;;;;;11.35;7.13;;;;;;;4.90;83.36;99652.16;346554;28;2047;-72
2022/12/07 00:31:00;;;;;;;10.93;6.85;;;;;;;4.92;83.31;99649.56;346092;28;1244;-72
2022/12/07 00:31:13;;;;;;;9.90;6.82;;;;;;;4.94;83.51;99655.56;345725;28;1230;-72
2022/12/07 00:31:33;;;;;;;9.88;6.88;;;;;;;4.93;83.71;99648.69;345930;28;1434;-72
2022/12/07 00:31:46;;;;;;;10.82;7.32;;;;;;;4.96;83.20;99649.53;346542;28;830;-72
2022/12/07 00:31:58;;;;;;;11.73;7.38;;;;;;;4.97;83.40;99655.53;346184;28;1071;-72
2022/12/07 00:32:10;;;;;;;12.35;7.47;;;;;;;4.94;83.15;99646.09;345472;28;1749;-72
2022/12/07 00:32:22;;;;;;;11.73;7.57;;;;;;;4.90;82.93;99648.75;345478;28;1964;-72
2022/12/07 00:32:34;;;;;;;11.98;7.53;;;;;;;4.92;82.64;99647.84;346157;28;1108;-71
2022/12/07 00:32:47;;;;;;;12.25;7.30;;;;;;;4.95;82.72;99647.84;346063;28;1332;-71
2022/12/07 00:32:59;;;;;;;12.38;7.20;;;;;;;4.97;82.54;99647.78;346077;28;1051;-71
2022/12/07 00:33:11;;;;;;;11.82;7.47;;;;;;;4.99;82.42;99644.34;345786;28;1838;-72
2022/12/07 00:33:23;;;;;;;12.43;7.70;;;;;;;5.00;82.92;99645.19;346184;28;2152;-72
2022/12/07 00:33:36;;;;;;;12.80;7.68;;;;;;;5.00;83.42;99646.03;345894;28;1643;-72
2022/12/07 00:33:48;;;;;;;12.00;7.55;;;;;;;5.01;82.90;99644.34;345059;28;1106;-72
2022/12/07 00:34:00;;;;;;;11.88;7.53;;;;;;;5.04;82.97;99644.31;344741;28;1157;-72
2022/12/07 00:34:19;;;;;;;10.93;7.32;;;;;;;5.07;82.80;99646.84;344666;28;1054;-71
2022/12/07 00:34:31;;;;;;;11.13;7.63;;;;;;;5.08;82.60;99643.41;345801;28;1336;-72
2022/12/07 00:34:43;;;;;;;11.18;7.70;;;;;;;5.10;82.54;99645.97;345914;28;1149;-71
2022/12/07 00:34:55;;;;;;;11.00;7.32;;;;;;;5.10;82.76;99640.81;345801;28;1051;-72
2022/12/07 00:35:07;;;;;;;11.25;7.25;;;;;;;5.08;82.46;99640.81;346102;28;1043;-72
2022/12/07 00:35:19;;;;;;;11.20;7.03;;;;;;;5.10;82.17;99640.81;347033;28;1803;-72
2022/12/07 00:35:31;;;;;;;11.02;6.97;;;;;;;5.11;82.69;99643.38;347080;28;1600;-71
2022/12/07 00:35:43;;;;;;;12.00;7.10;;;;;;;5.12;82.29;99642.50;347359;28;1221;-71
2022/12/07 00:35:56;;;;;;;12.00;7.03;;;;;;;5.15;82.69;99639.91;346992;28;1686;-72
2022/12/07 00:36:15;;;;;;;11.07;6.80;;;;;;;5.11;82.22;99638.22;347469;28;1284;-72
2022/12/07 00:36:27;;;;;;;9.73;6.60;;;;;;;5.07;82.31;99646.84;346006;28;1776;-72
2022/12/07 00:36:39;;;;;;;10.20;6.78;;;;;;;5.08;82.64;99645.97;346262;28;1081;-72
2022/12/07 00:36:51;;;;;;;10.70;6.93;;;;;;;5.10;82.28;99641.66;346480;28;1347;-71
2022/12/07 00:37:03;;;;;;;10.48;6.68;;;;;;;5.06;82.90;99639.97;346382;28;1065;-72
2022/12/07 00:37:15;;;;;;;10.35;6.95;;;;;;;5.07;82.77;99641.72;346418;28;1093;-71
2022/12/07 00:37:27;;;;;;;10.40;7.10;;;;;;;5.05;82.81;99643.44;346447;28;1179;-71
2022/12/07 00:37:40;;;;;;;11.98;7.47;;;;;;;5.00;82.63;99642.63;346080;28;1689;-72
2022/12/07 00:37:52;;;;;;;12.95;7.85;;;;;;;5.02;82.33;99648.63;346212;28;1205;-72
2022/12/07 00:38:03;;;;;;;12.55;8.68;;;;;;;5.05;82.48;99643.44;346486;28;1100;-71
2022/12/07 00:38:15;;;;;;;12.88;8.93;;;;;;;5.01;82.63;99641.78;346670;28;1039;-72
2022/12/07 00:38:30;;;;;;;12.88;8.05;;;;;;;5.00;82.94;99650.34;346335;28;2077;-72
2022/12/07 00:38:43;;;;;;;11.82;7.22;;;;;;;4.98;82.72;99646.94;345875;28;1570;-71
2022/12/07 00:38:57;;;;;;;11.85;7.45;;;;;;;4.99;83.14;99649.50;345968;28;1007;-71
2022/12/07 00:39:10;;;;;;;11.45;7.63;;;;;;;5.01;83.28;99646.91;347921;28;820;-72
2022/12/07 00:39:22;;;;;;;10.73;7.38;;;;;;;4.95;82.69;99646.97;347286;28;1400;-71
2022/12/07 00:39:34;;;;;;;10.32;7.35;;;;;;;4.96;82.87;99651.25;347934;28;746;-71
2022/12/07 00:39:46;;;;;;;10.68;7.28;;;;;;;4.97;82.77;99640.06;346362;28;1743;-72
2022/12/07 00:39:58;;;;;;;11.05;7.22;;;;;;;4.99;nan;99638.34;346363;28;1912;-72
2022/12/07 00:40:11;;;;;;;11.18;6.90;;;;;;;4.99;82.93;99648.66;345608;28;1668;-72
2022/12/07 00:40:23;;;;;;;10.88;6.95;;;;;;;4.96;83.11;99652.09;346851;28;1466;-72
2022/12/07 00:40:35;;;;;;;10.45;6.63;;;;;;;4.97;83.25;99650.38;347270;28;1046;-71
2022/12/07 00:41:04;;;;;;;9.95;6.68;;;;;;;4.96;83.21;99648.69;347552;28;1918;-71
2022/12/07 00:41:22;;;;;;;11.18;7.25;;;;;;;4.97;82.99;99647.78;346339;28;1202;-72
2022/12/07 00:41:34;;;;;;;11.23;7.18;;;;;;;4.99;83.02;99648.66;347772;28;1108;-72
2022/12/07 00:41:46;;;;;;;10.98;7.30;;;;;;;5.00;82.72;99646.03;346790;28;1610;-72
2022/12/07 00:41:58;;;;;;;12.70;8.30;;;;;;;5.02;83.17;99643.47;347185;28;1196;-71
2022/12/07 00:42:10;;;;;;;14.32;9.60;;;;;;;5.02;82.94;99645.19;346583;28;1583;-72
2022/12/07 00:42:22;;;;;;;14.45;10.07;;;;;;;5.03;83.10;99645.19;345713;28;1269;-71
2022/12/07 00:42:34;;;;;;;11.38;8.55;;;;;;;4.98;82.68;99647.78;345015;28;1115;-72
2022/12/07 00:42:46;;;;;;;10.98;7.18;;;;;;;5.02;82.81;99647.78;344002;28;1332;-72
2022/12/07 00:42:58;;;;;;;12.32;7.03;;;;;;;5.02;82.55;99643.47;341867;28;1723;-72
2022/12/07 00:43:10;;;;;;;11.90;7.30;;;;;;;4.98;83.61;99644.38;342402;28;1812;-71
2022/12/07 00:43:22;;;;;;;11.77;8.77;;;;;;;4.96;82.91;99644.38;343075;28;1270;-72
2022/12/07 00:43:34;;;;;;;12.52;9.60;;;;;;;4.98;82.86;99646.94;342959;28;1822;-71
2022/12/07 00:43:48;;;;;;;13.02;9.88;;;;;;;5.01;83.06;99646.91;343483;28;1116;-72
2022/12/07 00:44:00;;;;;;;13.05;9.60;;;;;;;5.02;83.14;99646.03;343474;28;1127;-71
2022/12/07 00:44:12;;;;;;;13.40;10.68;;;;;;;5.05;82.68;99646.03;343684;28;1946;-71
2022/12/07 00:44:25;;;;;;;13.90;10.95;;;;;;;4.97;83.25;99645.22;345203;28;1471;-74
2022/12/07 00:44:37;;;;;;;13.90;9.98;;;;;;;4.97;82.91;99646.09;345618;28;1279;-74
2022/12/07 00:44:49;;;;;;;13.02;8.52;;;;;;;4.96;83.49;99638.38;345781;28;1288;-74
2022/12/07 00:45:01;;;;;;;11.48;6.85;;;;;;;4.95;83.05;99642.69;346053;28;1723;-72
2022/12/07 00:45:13;;;;;;;11.18;6.70;;;;;;;4.93;83.08;99639.28;346553;28;1743;-72
2022/12/07 00:45:25;;;;;;;12.25;7.22;;;;;;;4.94;83.07;99640.97;345823;28;1299;-72
2022/12/07 00:45:37;;;;;;;13.20;8.02;;;;;;;4.93;83.76;99644.41;345240;28;1882;-71
2022/12/07 00:45:49;;;;;;;12.60;8.23;;;;;;;4.95;83.42;99641.81;344280;28;1535;-72
2022/12/07 00:46:01;;;;;;;11.90;8.18;;;;;;;4.93;83.11;99644.41;344821;28;1628;-72
2022/12/07 00:46:14;;;;;;;11.70;7.90;;;;;;;4.91;83.21;99645.28;344559;28;1196;-71
2022/12/07 00:46:27;;;;;;;13.35;7.85;;;;;;;4.91;83.69;99645.28;342536;28;1739;-71
2022/12/07 00:46:39;;;;;;;16.67;10.95;;;;;;;4.92;83.15;99636.69;342417;28;1023;-72
2022/12/07 00:46:51;;;;;;;15.52;11.95;;;;;;;4.93;83.17;99638.38;342197;28;1326;-74
2022/12/07 00:47:04;;;;;;;13.68;10.20;;;;;;;4.96;83.71;99641.78;342319;28;1376;-74
2022/12/07 00:47:15;;;;;;;10.85;7.55;;;;;;;4.99;83.37;99638.34;342841;28;1067;-73
2022/12/07 00:47:27;;;;;;;11.30;7.13;;;;;;;5.02;83.54;99635.72;344897;28;1378;-72
2022/12/07 00:47:39;;;;;;;11.65;7.03;;;;;;;5.05;83.66;99635.72;345942;28;1079;-72
2022/12/07 00:47:51;;;;;;;11.88;7.63;;;;;;;5.06;82.98;99632.25;346473;28;1062;-72
2022/12/07 00:48:03;;;;;;;10.95;8.23;;;;;;;5.08;82.68;99637.41;347389;28;1292;-72
2022/12/07 00:48:15;;;;;;;13.30;9.48;;;;;;;5.05;83.33;99642.56;346630;28;1848;-72
2022/12/07 00:48:27;;;;;;;13.45;8.73;;;;;;;5.09;82.55;99636.50;346260;28;1667;-72
2022/12/07 00:48:39;;;;;;;12.23;7.80;;;;;;;5.10;83.30;99633.94;346556;28;1705;-72
2022/12/07 00:48:53;;;;;;;11.65;7.32;;;;;;;5.12;82.99;99639.91;347520;28;1727;-72
2022/12/07 00:49:05;;;;;;;11.07;7.22;;;;;;;5.11;83.17;99633.06;346869;28;1184;-72
2022/12/07 00:49:17;;;;;;;11.60;7.88;;;;;;;5.10;82.92;99636.50;346804;28;1104;-72
2022/12/07 00:49:29;;;;;;;11.05;7.88;;;;;;;5.07;82.18;99631.41;346235;28;1084;-72
2022/12/07 00:49:41;;;;;;;10.40;7.68;;;;;;;5.06;82.78;99632.25;346643;28;851;-72
2022/12/07 00:49:53;;;;;;;13.85;10.38;;;;;;;5.09;82.98;99639.97;346208;28;1050;-72
2022/12/07 00:50:05;;;;;;;19.42;15.20;;;;;;;5.04;83.06;99646.88;346880;28;2736;-71
2022/12/07 00:50:17;;;;;;;20.30;16.35;;;;;;;5.04;83.08;99636.56;346777;28;1842;-72
2022/12/07 00:50:29;;;;;;;15.18;11.30;;;;;;;5.03;82.39;99634.88;346179;28;1585;-71
2022/12/07 00:50:41;;;;;;;15.43;11.27;;;;;;;5.02;82.89;99640.88;347753;28;1430;-72
2022/12/07 00:50:53;;;;;;;14.05;9.95;;;;;;;5.00;82.27;99634.91;347383;28;1195;-72
2022/12/07 00:51:06;;;;;;;13.00;9.10;;;;;;;4.99;83.23;99634.06;345214;28;813;-72
2022/12/07 00:51:21;;;;;;;11.85;7.90;;;;;;;4.97;83.16;99635.78;344784;28;1304;-72
2022/12/07 00:51:33;;;;;;;13.52;9.82;;;;;;;4.97;83.68;99640.06;345384;28;2007;-74
2022/12/07 00:51:48;;;;;;;16.42;13.02;;;;;;;4.95;82.96;99641.81;345917;28;1037;-74
2022/12/07 00:52:00;;;;;;;18.60;14.85;;;;;;;4.97;83.10;99637.50;346078;28;1106;-71
2022/12/07 00:52:12;;;;;;;17.90;13.00;;;;;;;4.97;82.75;99632.34;343865;28;1648;-71
2022/12/07 00:52:24;;;;;;;16.90;11.77;;;;;;;4.99;82.83;99643.50;344345;28;1530;-71
2022/12/07 00:52:36;;;;;;;14.02;9.20;;;;;;;5.00;82.94;99634.91;343370;28;1381;-71
2022/12/07 00:52:48;;;;;;;13.20;7.65;;;;;;;5.04;83.20;99631.41;343427;28;1195;-71
2022/12/07 00:53:00;;;;;;;12.48;6.97;;;;;;;5.02;82.81;99637.47;344013;28;1352;-71
2022/12/07 00:53:13;;;;;;;13.13;7.68;;;;;;;5.02;83.07;99633.16;345460;28;1664;-71
2022/12/07 00:53:26;;;;;;;12.27;8.00;;;;;;;5.04;82.53;99636.56;345292;28;1744;-71
2022/12/07 00:53:39;;;;;;;11.93;8.27;;;;;;;5.04;82.94;99633.16;344419;28;1884;-71
2022/12/07 00:53:53;;;;;;;12.95;8.82;;;;;;;5.02;82.49;99640.03;345230;28;2003;-71
2022/12/07 00:54:05;;;;;;;12.57;8.77;;;;;;;5.01;83.26;99634.03;343626;28;1750;-71
2022/12/07 00:54:17;;;;;;;12.27;8.27;;;;;;;4.97;82.84;99634.91;345363;28;1411;-72
2022/12/07 00:54:29;;;;;;;12.25;8.05;;;;;;;4.97;83.15;99635.78;346345;28;1115;-71
2022/12/07 00:54:41;;;;;;;12.90;8.27;;;;;;;5.03;83.33;99637.47;345006;28;1657;-71
2022/12/07 00:54:53;;;;;;;12.50;8.40;;;;;;;5.06;82.94;99634.00;344796;28;1055;-71
2022/12/07 00:55:06;;;;;;;13.18;8.32;;;;;;;5.05;82.79;99633.13;344685;28;1717;-71
2022/12/07 00:55:18;;;;;;;13.18;7.65;;;;;;;5.03;82.87;99636.56;345269;28;1637;-71
2022/12/07 00:55:33;;;;;;;12.15;7.40;;;;;;;4.95;83.08;99642.69;345918;28;1221;-71
2022/12/07 00:55:46;;;;;;;10.23;7.20;;;;;;;4.93;83.64;99638.38;345512;28;1618;-72
2022/12/07 00:55:58;;;;;;;10.05;7.18;;;;;;;4.95;83.24;99637.53;347004;28;1528;-71
2022/12/07 00:56:29;;;;;;;10.35;7.35;;;;;;;4.93;83.48;99633.25;347022;28;1190;-71
2022/12/07 00:56:41;;;;;;;10.52;7.43;;;;;;;4.95;83.47;99639.22;346109;28;1159;-71
2022/12/07 00:56:53;;;;;;;11.02;7.38;;;;;;;4.98;83.23;99641.78;345833;28;1792;-71
2022/12/07 00:57:05;;;;;;;10.73;7.00;;;;;;;5.01;83.29;99631.47;347269;28;1018;-71
2022/12/07 00:57:17;;;;;;;10.40;7.00;;;;;;;5.03;83.81;99634.88;347948;28;1351;-71
2022/12/07 00:57:30;;;;;;;10.05;6.82;;;;;;;5.05;83.35;99633.13;345909;28;1648;-71
2022/12/07 00:57:42;;;;;;;10.90;7.07;;;;;;;5.02;83.23;99638.31;347332;28;1022;-71
2022/12/07 00:57:54;;;;;;;10.70;7.00;;;;;;;5.05;82.95;99635.72;346558;28;1675;-71
2022/12/07 00:58:06;;;;;;;10.65;7.25;;;;;;;5.05;82.72;99635.72;346280;28;1812;-73
2022/12/07 00:58:19;;;;;;;11.60;7.47;;;;;;;5.07;82.91;99633.97;345676;28;1784;-72
2022/12/07 00:58:31;;;;;;;12.70;7.78;;;;;;;5.09;82.74;99637.38;345845;28;1270;-71
2022/12/07 00:58:44;;;;;;;12.85;7.93;;;;;;;5.10;82.73;99636.50;344652;28;1200;-71
2022/12/07 00:59:01;;;;;;;11.35;7.47;;;;;;;5.11;82.39;99638.22;344644;28;1051;-72
2022/12/07 00:59:14;;;;;;;10.98;6.85;;;;;;;5.11;82.68;99637.34;344164;28;1581;-71
2022/12/07 00:59:26;;;;;;;11.25;7.25;;;;;;;5.12;82.97;99637.34;343345;28;1886;-71
2022/12/07 00:59:38;;;;;;;11.32;7.10;;;;;;;5.13;82.86;99636.50;343477;28;1911;-71
2022/12/07 00:59:54;;;;;;;11.57;7.07;;;;;;;5.11;82.63;99634.78;344618;28;1075;-71
2022/12/07 01:00:07;;;;;;;10.82;7.10;;;;;;;5.12;82.67;99633.91;344163;28;1846;-71
2022/12/07 01:00:19;;;;;;;10.02;7.00;;;;;;;5.07;82.77;99636.56;344540;28;1662;-72
2022/12/07 01:00:31;;;;;;;11.80;7.55;;;;;;;5.08;82.63;99635.66;345063;28;1888;-72
2022/12/07 01:00:43;;;;;;;12.10;7.53;;;;;;;5.11;82.73;99638.22;345178;28;1254;-71
2022/12/07 01:01:00;;;;;;;11.80;7.13;;;;;;;5.06;83.29;99636.56;346231;28;1027;-74
2022/12/07 01:01:12;;;;;;;12.15;7.30;;;;;;;5.08;82.34;99638.25;347253;28;1478;-74
2022/12/07 01:01:26;;;;;;;13.43;7.50;;;;;;;5.07;82.89;99639.13;346229;28;1037;-74
2022/12/07 01:01:39;;;;;;;13.20;7.25;;;;;;;5.09;82.43;99634.81;346046;28;899;-71
2022/12/07 01:01:51;;;;;;;12.48;7.13;;;;;;;5.08;83.26;99643.41;346125;28;1089;-71
2022/12/07 01:02:03;;;;;;;12.57;7.25;;;;;;;5.07;83.14;99636.56;346116;28;1019;-71
2022/12/07 01:02:15;;;;;;;11.75;7.10;;;;;;;5.03;82.99;99634.88;345973;28;1249;-71
2022/12/07 01:02:27;;;;;;;11.50;7.05;;;;;;;5.05;82.72;99632.25;344949;28;1875;-71